createdAt,value
2022-08-27T00:00:34.672Z,17.30
2022-08-27T00:03:03.246Z,21.10
2022-08-27T00:05:30.848Z,32.70
2022-08-27T00:07:57.453Z,29.10
2022-08-27T00:10:26.948Z,19.77
2022-08-27T00:12:55.711Z,16.50
2022-08-27T00:15:23.105Z,18.42
2022-08-27T00:17:49.863Z,16.08
2022-08-27T00:20:18.467Z,17.17
2022-08-27T00:22:45.652Z,15.63
2022-08-27T00:25:13.054Z,14.93
2022-08-27T00:27:41.261Z,17.52
2022-08-27T00:30:13.313Z,18.70
2022-08-27T00:32:42.591Z,18.17
2022-08-27T00:35:10.530Z,16.92
2022-08-27T00:37:38.156Z,15.65
2022-08-27T00:40:08.377Z,14.20
2022-08-27T00:42:35.236Z,16.73
2022-08-27T00:45:02.327Z,16.10
2022-08-27T00:47:31.831Z,11.18
2022-08-27T00:50:06.417Z,11.35
2022-08-27T00:52:36.688Z,10.82
2022-08-27T00:55:08.972Z,9.65
2022-08-27T00:57:39.031Z,14.18
2022-08-27T01:00:10.540Z,10.88
2022-08-27T01:02:37.481Z,11.55
2022-08-27T01:05:11.312Z,8.55
2022-08-27T01:07:41.254Z,10.75
2022-08-27T01:10:13.149Z,13.23
2022-08-27T01:12:40.173Z,8.85
2022-08-27T01:15:11.006Z,8.27
2022-08-27T01:17:41.378Z,9.65
2022-08-27T01:20:14.524Z,9.43
2022-08-27T01:23:08.216Z,13.48
2022-08-27T01:25:35.273Z,13.27
2022-08-27T01:28:03.834Z,10.52
2022-08-27T01:30:31.582Z,13.88
2022-08-27T01:32:58.267Z,10.85
2022-08-27T01:35:25.439Z,10.75
2022-08-27T01:37:56.985Z,16.83
2022-08-27T01:40:25.311Z,10.48
2022-08-27T01:42:54.664Z,9.40
2022-08-27T01:45:26.440Z,11.88
2022-08-27T01:47:53.301Z,11.63
2022-08-27T01:50:24.050Z,11.60
2022-08-27T01:52:52.245Z,11.25
2022-08-27T01:55:22.992Z,9.15
2022-08-27T01:57:50.117Z,9.35
2022-08-27T02:00:20.593Z,10.70
2022-08-27T02:02:49.117Z,8.88
2022-08-27T02:05:17.022Z,10.23
2022-08-27T02:07:44.819Z,13.23
2022-08-27T02:10:15.640Z,9.45
2022-08-27T02:12:42.459Z,9.52
2022-08-27T02:15:10.051Z,10.20
2022-08-27T02:17:36.667Z,9.77
2022-08-27T02:20:05.475Z,8.20
2022-08-27T02:22:32.317Z,12.27
2022-08-27T02:24:59.270Z,9.95
2022-08-27T02:27:26.009Z,9.02
2022-08-27T02:29:53.249Z,10.07
2022-08-27T02:32:32.307Z,9.18
2022-08-27T02:34:59.455Z,11.82
2022-08-27T02:37:26.597Z,10.80
2022-08-27T02:39:53.447Z,9.93
2022-08-27T02:42:20.351Z,10.82
2022-08-27T02:44:47.712Z,9.32
2022-08-27T02:47:15.481Z,8.10
2022-08-27T02:49:43.171Z,9.60
2022-08-27T02:52:11.409Z,7.20
2022-08-27T02:54:38.246Z,11.70
2022-08-27T02:57:06.335Z,9.57
2022-08-27T02:59:33.015Z,10.13
2022-08-27T03:01:59.932Z,7.78
2022-08-27T03:04:29.048Z,8.55
2022-08-27T03:06:57.057Z,8.05
2022-08-27T03:09:23.845Z,9.00
2022-08-27T03:11:50.717Z,8.18
2022-08-27T03:14:17.458Z,7.53
2022-08-27T03:16:44.175Z,6.85
2022-08-27T03:19:10.999Z,8.10
2022-08-27T03:21:37.761Z,10.77
2022-08-27T03:24:11.712Z,9.13
2022-08-27T03:26:41.464Z,8.82
2022-08-27T03:29:08.578Z,6.70
2022-08-27T03:31:35.259Z,8.70
2022-08-27T03:34:04.624Z,8.48
2022-08-27T03:36:31.859Z,7.65
2022-08-27T03:38:58.783Z,6.07
2022-08-27T03:41:43.869Z,6.25
2022-08-27T03:44:18.180Z,7.72
2022-08-27T03:46:49.641Z,11.55
2022-08-27T03:49:20.347Z,9.02
2022-08-27T03:51:48.619Z,8.23
2022-08-27T03:54:15.833Z,8.43
2022-08-27T03:56:42.586Z,8.20
2022-08-27T03:59:09.213Z,10.60
2022-08-27T04:01:36.403Z,8.02
2022-08-27T04:04:03.497Z,9.30
2022-08-27T04:06:30.288Z,9.95
2022-08-27T04:08:57.045Z,9.15
2022-08-27T04:11:24.163Z,12.18
2022-08-27T04:13:51.450Z,12.32
2022-08-27T04:16:18.754Z,8.52
2022-08-27T04:18:45.405Z,10.27
2022-08-27T04:21:13.875Z,11.45
2022-08-27T04:23:42.416Z,11.23
2022-08-27T04:26:11.878Z,13.20
2022-08-27T04:28:40.547Z,12.45
2022-08-27T04:31:16.628Z,11.30
2022-08-27T04:33:50.725Z,10.77
2022-08-27T04:38:44.674Z,11.32
2022-08-27T04:41:21.836Z,11.00
2022-08-27T04:43:56.856Z,11.73
2022-08-27T04:46:29.625Z,11.80
2022-08-27T04:48:58.928Z,16.00
2022-08-27T04:51:26.456Z,13.63
2022-08-27T04:53:54.333Z,13.73
2022-08-27T04:56:22.820Z,13.90
2022-08-27T04:58:50.836Z,14.75
2022-08-27T05:01:27.803Z,12.90
2022-08-27T05:03:55.029Z,11.73
2022-08-27T05:06:22.966Z,14.52
2022-08-27T05:08:51.026Z,14.15
2022-08-27T05:11:19.198Z,16.23
2022-08-27T05:13:46.344Z,17.27
2022-08-27T05:16:16.658Z,14.75
2022-08-27T05:18:48.529Z,13.65
2022-08-27T05:21:27.661Z,16.83
2022-08-27T05:23:56.345Z,15.57
2022-08-27T05:26:23.332Z,14.55
2022-08-27T05:28:50.869Z,13.63
2022-08-27T05:31:18.552Z,11.63
2022-08-27T05:33:47.262Z,14.82
2022-08-27T05:36:22.715Z,12.15
2022-08-27T05:38:50.796Z,14.00
2022-08-27T05:41:21.110Z,13.00
2022-08-27T05:43:50.440Z,11.23
2022-08-27T05:46:20.674Z,10.20
2022-08-27T05:48:48.822Z,9.50
2022-08-27T05:51:30.543Z,12.27
2022-08-27T05:54:00.018Z,10.23
2022-08-27T05:56:28.845Z,12.55
2022-08-27T05:59:14.691Z,12.25
2022-08-27T06:01:45.532Z,14.43
2022-08-27T06:04:17.488Z,12.02
2022-08-27T06:06:45.731Z,12.38
2022-08-27T06:09:15.584Z,10.85
2022-08-27T06:11:43.632Z,13.73
2022-08-27T06:14:10.764Z,15.43
2022-08-27T06:16:38.679Z,16.40
2022-08-27T06:19:06.532Z,15.63
2022-08-27T06:21:33.655Z,15.20
2022-08-27T06:24:01.072Z,15.38
2022-08-27T06:26:28.221Z,13.35
2022-08-27T06:28:55.446Z,14.75
2022-08-27T06:31:24.673Z,15.20
2022-08-27T06:33:53.735Z,14.73
2022-08-27T06:36:25.525Z,13.40
2022-08-27T06:38:54.656Z,16.60
2022-08-27T06:41:24.241Z,18.63
2022-08-27T06:43:52.199Z,15.23
2022-08-27T06:46:21.084Z,15.32
2022-08-27T06:48:49.713Z,13.75
2022-08-27T06:51:24.682Z,13.57
2022-08-27T06:53:52.746Z,13.00
2022-08-27T06:56:20.536Z,13.15
2022-08-27T06:58:48.962Z,12.25
2022-08-27T07:01:22.562Z,12.20
2022-08-27T07:03:49.640Z,11.80
2022-08-27T07:06:17.343Z,11.18
2022-08-27T07:08:53.164Z,11.95
2022-08-27T07:11:20.972Z,10.48
2022-08-27T07:13:49.155Z,10.75
2022-08-27T07:16:23.162Z,11.02
2022-08-27T07:18:52.407Z,9.63
2022-08-27T07:21:20.584Z,10.40
2022-08-27T07:23:48.838Z,8.68
2022-08-27T07:26:15.937Z,10.10
2022-08-27T07:28:44.311Z,10.85
2022-08-27T07:31:13.344Z,10.13
2022-08-27T07:33:46.114Z,9.30
2022-08-27T07:36:19.486Z,10.10
2022-08-27T07:38:46.237Z,10.13
2022-08-27T07:41:15.209Z,7.18
2022-08-27T07:44:00.594Z,8.77
2022-08-27T07:46:28.400Z,9.02
2022-08-27T07:48:57.671Z,6.88
2022-08-27T07:51:27.499Z,9.10
2022-08-27T07:53:54.504Z,7.60
2022-08-27T07:56:22.417Z,5.75
2022-08-27T07:58:49.755Z,6.90
2022-08-27T08:01:17.476Z,6.90
2022-08-27T08:03:44.690Z,7.53
2022-08-27T08:06:14.315Z,8.68
2022-08-27T08:08:42.160Z,9.65
2022-08-27T08:11:13.259Z,9.07
2022-08-27T08:13:40.145Z,7.65
2022-08-27T08:16:07.203Z,9.10
2022-08-27T08:18:36.197Z,8.13
2022-08-27T08:21:05.480Z,10.77
2022-08-27T08:23:33.890Z,6.85
2022-08-27T08:26:01.262Z,7.97
2022-08-27T08:28:29.397Z,8.25
2022-08-27T08:30:57.012Z,8.20
2022-08-27T08:33:23.893Z,8.10
2022-08-27T08:35:50.792Z,8.35
2022-08-27T08:38:18.761Z,8.75
2022-08-27T08:40:50.402Z,8.32
2022-08-27T08:43:40.737Z,8.10
2022-08-27T08:46:22.103Z,8.55
2022-08-27T08:48:50.623Z,10.63
2022-08-27T08:51:23.675Z,8.98
2022-08-27T08:53:57.709Z,8.63
2022-08-27T08:56:55.194Z,7.15
2022-08-27T08:59:37.332Z,9.85
2022-08-27T09:02:11.300Z,8.02
2022-08-27T09:04:43.724Z,8.18
2022-08-27T09:07:45.787Z,8.77
2022-08-27T09:11:03.918Z,6.95
2022-08-27T09:13:39.489Z,7.53
2022-08-27T09:16:06.808Z,10.93
2022-08-27T09:18:36.931Z,7.13
2022-08-27T09:21:45.553Z,7.63
2022-08-27T09:24:24.556Z,7.88
2022-08-27T09:26:51.577Z,5.80
2022-08-27T09:29:20.614Z,5.90
2022-08-27T09:32:13.605Z,5.80
2022-08-27T09:34:43.680Z,5.07
2022-08-27T09:37:23.479Z,6.90
2022-08-27T09:40:32.253Z,4.93
2022-08-27T09:43:20.331Z,4.70
2022-08-27T09:45:49.728Z,7.55
2022-08-27T09:48:34.826Z,10.80
2022-08-27T09:51:08.982Z,8.18
2022-08-27T09:53:52.316Z,6.43
2022-08-27T09:56:40.540Z,6.38
2022-08-27T09:59:13.084Z,7.75
2022-08-27T10:02:11.991Z,5.93
2022-08-27T10:04:50.967Z,6.95
2022-08-27T10:07:36.947Z,7.03
2022-08-27T10:10:11.306Z,5.85
2022-08-27T10:12:56.692Z,7.47
2022-08-27T10:15:24.949Z,8.65
2022-08-27T10:18:27.797Z,7.55
2022-08-27T10:21:15.613Z,8.07
2022-08-27T10:24:06.372Z,8.20
2022-08-27T10:26:52.819Z,8.23
2022-08-27T10:29:53.241Z,7.65
2022-08-27T10:33:26.984Z,9.35
2022-08-27T10:36:06.088Z,7.13
2022-08-27T10:38:44.804Z,6.40
2022-08-27T10:41:26.073Z,9.07
2022-08-27T10:44:32.138Z,7.13
2022-08-27T10:47:19.609Z,11.40
2022-08-27T10:49:52.922Z,10.50
2022-08-27T10:52:19.672Z,7.70
2022-08-27T10:55:10.597Z,8.15
2022-08-27T10:58:10.122Z,10.48
2022-08-27T11:01:09.316Z,9.93
2022-08-27T11:03:46.676Z,8.93
2022-08-27T11:06:28.264Z,9.52
2022-08-27T11:09:11.347Z,10.52
2022-08-27T11:12:13.786Z,9.70
2022-08-27T11:14:49.122Z,9.23
2022-08-27T11:17:19.337Z,7.07
2022-08-27T11:20:11.063Z,9.25
2022-08-27T11:22:42.516Z,8.50
2022-08-27T11:25:18.070Z,9.55
2022-08-27T11:27:45.713Z,7.38
2022-08-27T11:30:32.048Z,9.32
2022-08-27T11:33:07.287Z,7.32
2022-08-27T11:36:14.045Z,8.38
2022-08-27T11:39:19.122Z,6.93
2022-08-27T11:44:22.539Z,8.13
2022-08-27T11:46:52.391Z,9.68
2022-08-27T11:49:27.908Z,9.27
2022-08-27T11:52:03.505Z,9.63
2022-08-27T11:54:46.048Z,11.07
2022-08-27T11:57:27.768Z,6.75
2022-08-27T11:59:54.448Z,8.35
2022-08-27T12:02:27.579Z,9.50
2022-08-27T12:05:07.464Z,8.75
2022-08-27T12:07:37.407Z,7.75
2022-08-27T12:10:33.702Z,9.65
2022-08-27T12:13:25.496Z,6.63
2022-08-27T12:16:23.906Z,9.43
2022-08-27T12:19:04.242Z,9.23
2022-08-27T12:22:01.873Z,8.90
2022-08-27T12:24:55.640Z,6.70
2022-08-27T12:27:28.967Z,9.65
2022-08-27T12:30:02.785Z,8.02
2022-08-27T12:32:44.608Z,10.45
2022-08-27T12:35:15.031Z,7.07
2022-08-27T12:37:56.935Z,8.23
2022-08-27T12:40:29.921Z,7.50
2022-08-27T12:43:13.570Z,7.97
2022-08-27T12:45:52.697Z,7.13
2022-08-27T12:48:27.351Z,7.43
2022-08-27T12:50:56.348Z,8.75
2022-08-27T12:53:52.052Z,7.35
2022-08-27T12:56:53.189Z,8.43
2022-08-27T12:59:59.215Z,13.07
2022-08-27T13:02:55.369Z,10.45
2022-08-27T13:05:24.040Z,8.25
2022-08-27T13:07:52.441Z,11.80
2022-08-27T13:10:28.785Z,8.40
2022-08-27T13:13:09.497Z,8.35
2022-08-27T13:15:36.510Z,9.85
2022-08-27T13:18:04.782Z,8.07
2022-08-27T13:20:32.673Z,11.05
2022-08-27T13:22:59.602Z,9.32
2022-08-27T13:25:33.330Z,10.95
2022-08-27T13:28:15.557Z,7.53
2022-08-27T13:30:45.404Z,11.10
2022-08-27T13:33:17.523Z,8.85
2022-08-27T13:35:45.201Z,8.73
2022-08-27T13:38:12.908Z,7.78
2022-08-27T13:40:53.796Z,9.80
2022-08-27T13:43:22.228Z,10.32
2022-08-27T13:45:51.587Z,9.40
2022-08-27T13:48:19.271Z,8.55
2022-08-27T13:50:52.137Z,8.65
2022-08-27T13:53:41.388Z,10.40
2022-08-27T13:56:08.582Z,10.27
2022-08-27T13:58:36.676Z,9.77
2022-08-27T14:01:26.214Z,10.23
2022-08-27T14:03:57.972Z,10.23
2022-08-27T14:06:41.542Z,8.75
2022-08-27T14:09:25.593Z,8.63
2022-08-27T14:12:04.648Z,11.02
2022-08-27T14:14:36.820Z,8.57
2022-08-27T14:17:04.940Z,6.80
2022-08-27T14:19:36.268Z,8.35
2022-08-27T14:22:04.356Z,10.45
2022-08-27T14:24:30.973Z,9.27
2022-08-27T14:27:05.826Z,8.57
2022-08-27T14:29:32.440Z,8.70
2022-08-27T14:31:59.142Z,9.82
2022-08-27T14:34:29.508Z,8.18
2022-08-27T14:36:56.144Z,9.57
2022-08-27T14:42:10.794Z,9.90
2022-08-27T14:44:37.952Z,8.43
2022-08-27T14:47:09.402Z,8.30
2022-08-27T14:47:26.398Z,7.07
2022-08-27T14:49:41.486Z,9.13
2022-08-27T14:52:12.238Z,7.60
2022-08-27T14:54:39.542Z,8.25
2022-08-27T14:57:07.232Z,11.05
2022-08-27T14:59:34.768Z,10.05
2022-08-27T15:02:03.210Z,10.02
2022-08-27T15:04:30.953Z,6.82
2022-08-27T15:06:59.870Z,10.82
2022-08-27T15:09:28.402Z,8.98
2022-08-27T15:11:57.191Z,7.65
2022-08-27T15:14:36.273Z,7.65
2022-08-27T15:17:03.361Z,9.40
2022-08-27T15:19:49.000Z,8.32
2022-08-27T15:22:22.413Z,10.55
2022-08-27T15:24:54.415Z,10.10
2022-08-27T15:27:22.186Z,9.63
2022-08-27T15:29:49.348Z,10.13
2022-08-27T15:32:27.859Z,8.98
2022-08-27T15:34:57.034Z,9.40
2022-08-27T15:37:24.784Z,8.90
2022-08-27T15:39:51.533Z,8.60
2022-08-27T15:42:18.728Z,7.80
2022-08-27T15:44:50.142Z,9.88
2022-08-27T15:47:19.588Z,9.75
2022-08-27T15:49:46.671Z,11.85
2022-08-27T15:52:17.208Z,13.98
2022-08-27T15:54:45.022Z,14.48
2022-08-27T15:57:12.146Z,13.73
2022-08-27T15:59:39.672Z,12.93
2022-08-27T16:02:07.949Z,12.30
2022-08-27T16:04:34.981Z,8.25
2022-08-27T16:07:01.655Z,12.07
2022-08-27T16:09:28.377Z,10.27
2022-08-27T16:11:55.473Z,9.55
2022-08-27T16:14:22.314Z,7.63
2022-08-27T16:16:50.398Z,10.90
2022-08-27T16:19:18.227Z,11.07
2022-08-27T16:21:46.180Z,12.40
2022-08-27T16:24:14.089Z,12.23
2022-08-27T16:26:40.762Z,13.98
2022-08-27T16:29:07.523Z,7.55
2022-08-27T16:31:35.460Z,8.95
2022-08-27T16:34:03.244Z,10.75
2022-08-27T16:36:30.797Z,9.23
2022-08-27T16:38:57.512Z,7.93
2022-08-27T16:41:24.552Z,11.23
2022-08-27T16:43:51.245Z,9.80
2022-08-27T16:46:18.177Z,10.00
2022-08-27T16:49:03.528Z,8.63
2022-08-27T16:51:34.499Z,6.93
2022-08-27T16:54:06.468Z,13.02
2022-08-27T16:56:37.130Z,7.50
2022-08-27T16:59:04.919Z,9.88
2022-08-27T17:01:32.231Z,7.60
2022-08-27T17:04:13.834Z,9.15
2022-08-27T17:06:45.546Z,9.90
2022-08-27T17:09:12.655Z,6.25
2022-08-27T17:11:42.945Z,8.65
2022-08-27T17:14:13.182Z,6.18
2022-08-27T17:16:41.840Z,8.45
2022-08-27T17:19:09.874Z,7.95
2022-08-27T17:21:38.520Z,8.57
2022-08-27T17:24:12.313Z,10.80
2022-08-27T17:26:40.315Z,9.80
2022-08-27T17:29:07.103Z,11.68
2022-08-27T17:31:37.306Z,9.13
2022-08-27T17:34:06.725Z,8.43
2022-08-27T17:36:35.012Z,5.88
2022-08-27T17:39:03.183Z,4.80
2022-08-27T17:41:39.912Z,7.15
2022-08-27T17:44:33.497Z,10.63
2022-08-27T17:47:03.425Z,7.65
2022-08-27T17:49:34.510Z,4.55
2022-08-27T17:52:04.483Z,5.88
2022-08-27T17:54:56.836Z,6.75
2022-08-27T17:57:27.658Z,5.47
2022-08-27T17:59:55.493Z,5.82
2022-08-27T18:02:25.494Z,4.80
2022-08-27T18:04:54.013Z,5.00
2022-08-27T18:07:21.498Z,4.97
2022-08-27T18:09:49.123Z,6.25
2022-08-27T18:12:18.742Z,6.90
2022-08-27T18:14:46.442Z,4.28
2022-08-27T18:17:13.975Z,5.50
2022-08-27T18:19:45.493Z,4.03
2022-08-27T18:22:12.733Z,5.50
2022-08-27T18:24:40.601Z,6.10
2022-08-27T18:27:07.273Z,4.82
2022-08-27T18:29:33.849Z,4.47
2022-08-27T18:32:00.667Z,4.85
2022-08-27T18:34:27.870Z,3.17
2022-08-27T18:36:54.554Z,3.83
2022-08-27T18:39:21.147Z,5.90
2022-08-27T18:41:53.445Z,4.82
2022-08-27T18:44:20.085Z,6.85
2022-08-27T18:46:46.715Z,4.60
2022-08-27T18:49:14.671Z,4.18
2022-08-27T18:51:43.879Z,3.50
2022-08-27T18:54:11.442Z,5.40
2022-08-27T18:56:38.533Z,6.20
2022-08-27T18:59:07.011Z,4.28
2022-08-27T19:01:33.933Z,5.07
2022-08-27T19:04:01.252Z,4.53
2022-08-27T19:06:28.369Z,4.47
2022-08-27T19:08:56.521Z,3.50
2022-08-27T19:11:23.508Z,3.88
2022-08-27T19:13:50.953Z,7.95
2022-08-27T19:16:23.706Z,6.70
2022-08-27T19:18:51.080Z,3.78
2022-08-27T19:21:18.014Z,5.55
2022-08-27T19:23:45.419Z,6.68
2022-08-27T19:26:18.120Z,5.03
2022-08-27T19:28:45.361Z,4.40
2022-08-27T19:31:13.379Z,4.65
2022-08-27T19:33:40.607Z,4.40
2022-08-27T19:36:11.454Z,4.90
2022-08-27T19:38:42.072Z,8.05
2022-08-27T19:41:09.063Z,4.60
2022-08-27T19:43:35.713Z,6.68
2022-08-27T19:46:03.651Z,5.47
2022-08-27T19:48:31.401Z,4.28
2022-08-27T19:50:59.216Z,8.68
2022-08-27T19:53:26.201Z,4.75
2022-08-27T19:55:53.017Z,4.68
2022-08-27T19:58:20.521Z,4.45
2022-08-27T20:00:47.345Z,5.05
2022-08-27T20:03:14.569Z,7.95
2022-08-27T20:05:41.561Z,4.88
2022-08-27T20:08:08.978Z,4.95
2022-08-27T20:10:36.581Z,7.57
2022-08-27T20:13:04.678Z,6.38
2022-08-27T20:15:32.024Z,5.13
2022-08-27T20:18:03.077Z,5.97
2022-08-27T20:20:31.462Z,6.05
2022-08-27T20:23:01.017Z,5.63
2022-08-27T20:25:27.765Z,9.13
2022-08-27T20:27:54.884Z,7.43
2022-08-27T20:30:24.360Z,3.88
2022-08-27T20:32:51.043Z,6.15
2022-08-27T20:35:19.026Z,6.40
2022-08-27T20:37:46.461Z,8.32
2022-08-27T20:40:26.501Z,6.70
2022-08-27T20:42:53.536Z,10.27
2022-08-27T20:45:21.241Z,6.32
2022-08-27T20:47:49.417Z,8.65
2022-08-27T20:50:17.785Z,4.20
2022-08-27T20:52:45.704Z,7.50
2022-08-27T20:55:14.376Z,7.45
2022-08-27T20:58:04.409Z,11.60
2022-08-27T21:00:34.730Z,5.43
2022-08-27T21:03:01.789Z,6.97
2022-08-27T21:05:32.518Z,7.30
2022-08-27T21:07:59.456Z,7.40
2022-08-27T21:10:26.816Z,4.75
2022-08-27T21:12:54.033Z,6.97
2022-08-27T21:15:21.265Z,5.97
2022-08-27T21:17:47.898Z,8.15
2022-08-27T21:20:14.804Z,5.53
2022-08-27T21:22:43.941Z,4.75
2022-08-27T21:25:13.219Z,6.32
2022-08-27T21:27:41.242Z,6.63
2022-08-27T21:30:11.368Z,7.93
2022-08-27T21:32:38.842Z,7.25
2022-08-27T21:35:06.464Z,8.75
2022-08-27T21:37:33.391Z,5.57
2022-08-27T21:40:00.619Z,6.53
2022-08-27T21:42:27.475Z,6.28
2022-08-27T21:44:54.087Z,5.97
2022-08-27T21:47:20.722Z,10.02
2022-08-27T21:49:47.557Z,6.70
2022-08-27T21:52:14.306Z,5.15
2022-08-27T21:54:42.900Z,6.03
2022-08-27T21:57:14.007Z,5.55
2022-08-27T21:59:46.443Z,6.70
2022-08-27T22:02:38.274Z,6.82
2022-08-27T22:05:02.385Z,5.53
2022-08-27T22:07:29.440Z,8.10
2022-08-27T22:09:56.045Z,4.40
2022-08-27T22:12:22.781Z,6.45
2022-08-27T22:14:49.938Z,5.25
2022-08-27T22:17:16.902Z,5.50
2022-08-27T22:19:43.832Z,10.73
2022-08-27T22:22:10.537Z,6.20
2022-08-27T22:24:38.019Z,10.05
2022-08-27T22:27:05.092Z,6.85
2022-08-27T22:29:31.783Z,4.72
2022-08-27T22:31:58.684Z,4.93
2022-08-27T22:34:25.425Z,7.32
2022-08-27T22:36:52.160Z,5.63
2022-08-27T22:39:19.122Z,7.80
2022-08-27T22:41:48.762Z,7.60
2022-08-27T22:44:15.875Z,6.75
2022-08-27T22:46:42.977Z,8.23
2022-08-27T22:49:10.050Z,6.25
2022-08-27T22:51:37.041Z,7.03
2022-08-27T22:54:03.904Z,7.25
2022-08-27T22:56:30.731Z,9.70
2022-08-27T22:58:57.564Z,6.85
2022-08-27T23:01:25.055Z,7.70
2022-08-27T23:03:53.443Z,6.07
2022-08-27T23:06:20.206Z,8.10
2022-08-27T23:08:47.010Z,11.10
2022-08-27T23:11:16.027Z,10.10
2022-08-27T23:13:42.712Z,4.53
2022-08-27T23:16:09.850Z,5.45
2022-08-27T23:18:38.764Z,8.48
2022-08-27T23:21:06.169Z,7.68
2022-08-27T23:23:34.329Z,8.35
2022-08-27T23:26:20.056Z,6.78
2022-08-27T23:28:47.515Z,5.53
2022-08-27T23:31:15.339Z,7.90
2022-08-27T23:33:42.489Z,10.48
2022-08-27T23:36:10.187Z,8.98
2022-08-27T23:38:37.614Z,8.32
2022-08-27T23:41:06.287Z,9.30
2022-08-27T23:43:32.881Z,9.27
2022-08-27T23:45:59.715Z,8.13
2022-08-27T23:48:26.925Z,8.20
2022-08-27T23:50:53.738Z,9.80
2022-08-27T23:53:20.465Z,5.40
2022-08-27T23:55:47.465Z,7.38
2022-08-27T23:58:14.161Z,5.03
